Estación Meteorológica Peña el Pijo (Robertgarden) [ 06/14/24 09:01:54 CEST ]

Fecha Hora Presion(HPa) Temp (°C) Humedad % Rocio (°C) Viento ( m/s) Direccion Lluvia 1Hora(mm) Lluvia 24H(mm) LLuvia Total(mm)
2015-Nov-19 01:01:12 1019.100 2.1 70 -2.8         656.30
2015-Nov-19 02:06:21 1018.800 1.9 72 -2.6         656.30
2015-Nov-19 03:01:18 1019.000 2.3 74 -1.9         656.30
2015-Nov-19 04:01:17 1018.900 1.8 76 -2.0         656.30
2015-Nov-19 05:01:19 1018.500 1.8 77 -1.8         656.30
2015-Nov-19 06:01:16 1018.800 2.1 78 -1.4         656.30
2015-Nov-19 07:01:13 1019.300 2.1 79 -1.2         656.30
2015-Nov-19 08:01:13 1020.100 1.9 80 -1.2         656.30
2015-Nov-19 09:01:13 1020.300 3.6 81 0.7         656.30
2015-Nov-19 10:01:14 1020.700 11.9 70 6.6         656.30
2015-Nov-19 11:01:13 1020.800 17.6 50 7.0         656.30
2015-Nov-19 12:01:14 1020.700 20.1 45 7.7         656.30
2015-Nov-19 13:01:17 1020.000 20.6 44 7.9         656.30
2015-Nov-19 14:01:11 1019.600 22.1 40 7.9         656.30
2015-Nov-19 15:01:12 1019.300 22.1 39 7.5         656.30
2015-Nov-19 16:01:16 1019.300 21.3 39 6.8         656.30
2015-Nov-19 17:01:13 1019.400 18.3 45 6.1         656.30
2015-Nov-19 18:01:13 1019.900 15.3 53 5.8         656.30
2015-Nov-19 19:01:12 1020.700 11.9 61 4.6         656.30
2015-Nov-19 20:01:13 1021.300 9.3 67 3.5         656.30
2015-Nov-19 21:01:18 1021.900 8.4 72 3.6         656.30
2015-Nov-19 22:01:14 1022.100 7.3 75 3.1         656.30
2015-Nov-19 23:01:16 1022.100 7.0 77 3.2         656.30

Temperatura Máxima:22°    Temperatura Mínima:
Presión Máxima:1022.100 Hpa    Presión Mínima:1018.500 Hpa


Volver